ADDS METAR Data INFO
IDs: Format: Raw Decoded Include TAF

Data at: 1110 UTC 17 Jul 2018

KMNM 171056Z AUTO 34006KT 10SM CLR 14/11 A3005 RMK AO2 SLP189 T01440106 $
KMNM 170956Z AUTO 33007KT 10SM CLR 15/11 A3002 RMK AO2 SLP178 T01500106 $
KMNM 170856Z AUTO 33004KT 10SM CLR 16/11 A3002 RMK AO2 SLP176 T01560111 53007 $
KMNM 170756Z AUTO 33004KT 10SM CLR 16/11 A3001 RMK AO2 SLP172 T01610111 $
KMNM 170656Z AUTO 33004KT 10SM CLR 16/11 A3000 RMK AO2 SLP170 T01610111 $
KMNM 170556Z AUTO 33004KT 10SM CLR 18/11 A3000 RMK AO2 SLP168 T01830106 10278 20178 51015 $
KMNM 170456Z AUTO 34005KT 10SM CLR 19/11 A2999 RMK AO2 SLP166 T01890106 402890189 $
KMNM 170356Z AUTO 35005KT 10SM FEW080 20/12 A2997 RMK AO2 SLP160 T02000117 $
KMNM 170256Z AUTO 01007KT 10SM CLR 22/12 A2995 RMK AO2 SLP152 T02220117 53021 $
KMNM 170156Z AUTO 32003KT 10SM SCT080 23/13 A2992 RMK AO2 SLP141 T02330128 $
KMNM 170056Z AUTO 00000KT 10SM SCT080 SCT095 26/13 A2990 RMK AO2 SLP134 T02610133 $
KMNM 162356Z AUTO 32003KT 10SM FEW090 28/12 A2989 RMK AO2 SLP129 T02780122 10289 20267 53001 $
KMNM 162256Z AUTO 30007KT 280V350 10SM FEW080 28/12 A2988 RMK AO2 SLP126 T02830122 $
KMNM 162156Z AUTO 31007KT 250V350 10SM CLR 28/11 A2988 RMK AO2 SLP127 T02830111 $
KMNM 162056Z AUTO 33008KT 10SM CLR 28/11 A2988 RMK AO2 SLP127 T02830111 56014 $
KMNM 161956Z AUTO VRB05KT 10SM CLR 28/13 A2989 RMK AO2 SLP130 T02780128 $
KMNM 161756Z AUTO 27008G16KT 10SM CLR 27/12 A2993 RMK AO2 SLP141 T02670122 10267 20217 58004 $
KMNM 161656Z AUTO VRB03KT 10SM CLR 26/15 A2994 RMK AO2 SLP146 T02560150 $
KMNM 161556Z AUTO VRB04KT 10SM CLR 25/14 A2995 RMK AO2 SLP149 T02500144 $
KMNM 161456Z AUTO VRB05KT 10SM CLR 24/16 A2994 RMK AO2 SLP147 T02390156 51008 $
KMNM 161356Z AUTO 34006KT 10SM BKN035 OVC042 22/16 A2994 RMK AO2 SLP147 T02220161 $
KMNM 161256Z AUTO 34010G14KT 10SM SCT035 SCT065 22/17 A2993 RMK AO2 SLP144 T02220172 $
KMNM 161156Z AUTO 34006KT 10SM FEW060 22/19 A2991 RMK AO2 SLP138 T02170189 10244 20217 53011 $
KMNM 161056Z AUTO 34007KT 10SM BKN060 22/19 A2990 RMK AO2 SLP135 T02220194 $
KMNM 160956Z AUTO 34007KT 10SM CLR 23/21 A2989 RMK AO2 SLP128 T02280206 $
KMNM 160856Z AUTO 32003KT 8SM CLR 23/22 A2988 RMK AO2 SLP126 T02280217 56005 $
KMNM 160756Z AUTO VRB03KT 8SM SCT050 23/22 A2989 RMK AO2 SLP128 T02330217 $
KMNM 160656Z AUTO 26003KT 10SM FEW050 24/22 A2988 RMK AO2 SLP127 T02390217 $
KMNM 160556Z AUTO 25004KT 10SM CLR 24/22 A2990 RMK AO2 SLP131 T02390217 10272 20239 56004 $
KMNM 160456Z AUTO 23006KT 10SM CLR 24/21 A2990 RMK AO2 SLP133 T02390211 403000167 $
KMNM 160356Z AUTO 22008KT 10SM CLR 24/21 A2990 RMK AO2 SLP131 T02440211 $
KMNM 160256Z AUTO 21007KT 10SM CLR 25/22 A2991 RMK AO2 SLP135 T02500222 53001 $
KMNM 160156Z AUTO 19004KT 6SM HZ CLR 26/22 A2990 RMK AO2 SLP133 T02560222 $
KMNM 160056Z AUTO 19005KT 10SM CLR 26/23 A2990 RMK AO2 SLP134 T02610228 $
KMNM 152356Z AUTO 18007KT 10SM CLR 27/23 A2990 RMK AO2 SLP136 T02720228 10300 20272 56012 $